• Join FlightAware (Why Join?)
  • Login
  • US Flag 
Trick or treat! (Boo!!) 
04:59PM EDT


 

Airport Tracker/Info


-or-


 

Live Flight TrackerFlight Track Log ✈ UAL582 ✈ 17-May-2013 ✈ CYYZ - KORD

Flight Track Log - Related Links

Times and Time Zones

All times are in EDT time to prevent confusion due to time zone crossing. See the UAL582 flight status page for this flight to view local times or setup timezone preferences in your user account.

Time Position Orientation Groundspeed Altitude Reporting Facility
EDT Latitude Longitude Course Direction KTS MPH feet Rate Location/Type
05:35PM 43.6500 -79.6833 270° West 190 219 2,500  Level Toronto Center
05:36PM 43.6167 -79.7667 241° Southwest 230 265 4,900 2,220 Climbing Toronto Center
05:37PM 43.6333 -79.8667 283° West 260 299 7,000 2,820 Climbing Toronto Center
05:38PM 43.7106 -80.0932 277° West  Level FlightAware Approximate
05:38PM 43.6500 -79.9500 285° West 270 311 10,600  Level Toronto Center
05:39PM 43.7167 -80.2135 270° West  Level FlightAware Approximate
05:39PM 43.6667 -80.0667 281° West 290 334 13,400  Level Toronto Center
05:40PM 43.7273 -80.3334 277° West  Level FlightAware Approximate
05:40PM 43.6833 -80.1833 281° West 300 345 16,500  Level Toronto Center
05:41PM 43.7334 -80.4538 270° West  Level FlightAware Approximate
05:41PM 43.7000 -80.3000 281° West 320 368 18,900  Level Toronto Center
05:43PM 43.7333 -80.5500 281° West 320 368 23,900 2,220 Climbing Toronto Center
05:44PM 43.7333 -80.6667 270° West 330 380 25,600 1,680 Climbing Toronto Center
05:45PM 43.7333 -80.8167 270° West 340 391 27,300 1,560 Climbing Toronto Center
05:46PM 43.7000 -80.9500 251° West 360 414 28,800 1,560 Climbing Toronto Center
05:48PM 43.6333 -81.2000 250° West 370 426 32,100 1,620 Climbing Toronto Center
05:49PM 43.6000 -81.3667 255° West 370 426 33,800 900 Climbing Toronto Center
05:50PM 43.5667 -81.4667 245° Southwest 360 414 34,000 60 Climbing Toronto Center
05:51PM 43.5333 -81.6167 253° West 360 414 34,000  Level Toronto Center
05:52PM 43.5000 -81.7500 251° West 360 414 34,000  Level Toronto Center
05:53PM 43.4667 -81.8833 251° West 360 414 34,000  Level Toronto Center
05:54PM 43.4167 -82.0000 239° Southwest 360 414 34,000  Level Toronto Center
05:55PM 43.4000 -82.1333 260° West 360 414 34,000  Level Toronto Center
05:56PM 43.3931 -82.1944 261° West 366 421 34,000  Level Cleveland Center
05:56PM 43.3667 -82.2667 243° Southwest 360 414 34,000  Level Toronto Center
05:57PM 43.3333 -82.3833 249° West 370 426 34,000 -60 Level Toronto Center
05:58PM 43.3000 -82.5167 251° West 370 426 33,900 -600 Descending Toronto Center
05:59PM 43.2500 -82.6500 243° Southwest 380 437 32,900 -960 Descending Toronto Center
06:00PM 43.2489 -82.7267 269° West 377 434 32,500 -600 Descending Cleveland Center
06:01PM 43.2064 -82.8733 248° West 395 455 32,000 -300 Descending Cleveland Center
06:02PM 43.1681 -83.0197 250° West 408 470 32,000  Level Cleveland Center
06:03PM 43.1294 -83.1633 250° West 408 470 32,000  Level Cleveland Center
06:04PM 43.0886 -83.3122 249° West 408 470 32,000 -360 Level Cleveland Center
06:05PM 43.0475 -83.4583 249° West 408 470 31,300 -900 Descending Cleveland Center
06:06PM 43.0042 -83.6039 248° West 414 476 30,300 -660 Descending Cleveland Center
06:07PM 42.9667 -83.7553 251° West 414 476 30,000 -180 Descending Cleveland Center
06:08PM 42.9500 -83.9106 262° West 414 476 30,000  Level Cleveland Center
06:09PM 42.9328 -84.0686 262° West 419 482 30,000  Level Cleveland Center
06:11PM 42.9103 -84.3217 263° West 363 418 30,000  Level Chicago Center
06:12PM 42.8958 -84.4569 262° West 361 415 30,000  Level Chicago Center
06:13PM 42.8828 -84.5922 263° West 362 417 30,000  Level Chicago Center
06:14PM 42.8661 -84.7653 263° West 386 444 30,000  Level Chicago Center
06:15PM 42.8489 -84.9186 261° West 410 472 30,000  Level Chicago Center
06:16PM 42.8322 -85.0700 262° West 406 467 30,000  Level Chicago Center
06:17PM 42.8158 -85.2325 262° West 432 497 30,000  Level Chicago Center
06:18PM 42.7969 -85.3956 261° West 438 504 30,000  Level Chicago Center
06:19PM 42.7756 -85.5603 260° West 440 506 30,000 -1,080 Level Chicago Center
06:20PM 42.7394 -85.7556 256° West 440 506 27,800 -2,280 Descending Chicago Center
06:21PM 42.7103 -85.9136 256° West 432 497 25,300 -2,400 Descending Chicago Center
06:22PM 42.6825 -86.0661 256° West 419 482 22,900 -2,340 Descending Chicago Center
06:23PM 42.6561 -86.2114 256° West 402 463 20,500 -1,560 Descending Chicago Center
06:24PM 42.6294 -86.3517 256° West 386 444 19,700 -1,260 Descending Chicago Center
06:25PM 42.6031 -86.4894 255° West 379 436 17,900 -1,740 Descending Chicago Center
06:26PM 42.5778 -86.6244 256° West 369 425 16,200 -1,860 Descending Chicago Center
06:27PM 42.5461 -86.7825 255° West 363 418 14,100 -1,920 Descending Chicago Center
06:28PM 42.5108 -86.9056 249° West 355 409 12,300 -1,800 Descending Chicago Center
06:29PM 42.4797 -87.0239 250° West 341 392 10,500 -1,140 Descending Chicago Center
06:30PM 42.4458 -87.1386 248° West 330 380 10,000 -300 Descending Chicago Center
06:31PM 42.4144 -87.2564 250° West 333 383 10,000  Level Chicago Center
06:32PM 42.3858 -87.3603 250° West 296 341 10,000  Level Chicago Center
06:33PM 42.3542 -87.4750 250° West 278 320 10,000  Level Chicago Center
06:35PM 42.3139 -87.5600 237° Southwest 284 327 10,000 -360 Level Chicago Center
06:36PM 42.2542 -87.6233 218° Southwest 272 313 9,300 -1,080 Descending Chicago Center
06:37PM 42.1939 -87.6872 218° Southwest 274 315 7,800 -1,140 Descending Chicago Center
06:38PM 42.1167 -87.7667 217° Southwest 270 311 7,000 -420 Descending Chicago TRACON
06:39PM 42.0833 -87.8500 242° Southwest 285 328 7,000  Level Chicago TRACON
06:40PM 42.0833 -87.9500 270° West 251 289 7,000 -60 Level Chicago TRACON
06:41PM 42.1000 -88.0333 285° West 237 273 6,900 -660 Descending Chicago TRACON
06:42PM 42.1000 -88.1333 270° West 237 273 5,700 -900 Descending Chicago TRACON
06:43PM 42.0833 -88.2167 255° West 212 244 5,200 -840 Descending Chicago TRACON
06:44PM 42.0833 -88.2833 270° West 206 237 4,100 -600 Descending Chicago TRACON
06:45PM 42.0667 -88.3667 255° West 206 237 4,000 -60 Descending Chicago TRACON
06:46PM 42.0667 -88.4333 270° West 206 237 4,000  Level Chicago TRACON
06:46PM 42.0597 -88.4481 238° Southwest 209 241 4,000 60 Level Chicago Center
06:47PM 42.0022 -88.4644 192° South 185 213 4,100  Climbing Chicago Center
06:48PM 41.9850 -88.4069 112° Southeast 171 197 4,000 -60 Descending Chicago Center
06:49PM 41.9817 -88.3450 94° East 171 197 4,000  Level Chicago Center
06:50PM 41.9822 -88.2800 89° East 170 196 4,000  Level Chicago Center
06:51PM 41.9833 -88.2169 89° East 171 197 4,000  Level Chicago Center
06:52PM 41.9833 -88.1531 90° East 171 197 4,000 -420 Level Chicago Center
06:53PM 41.9833 -88.1000 90° East 171 197 3,300 -1,020 Descending Chicago TRACON
06:54PM 41.9833 -88.0333 90° East 163 188 2,400 -900 Descending Chicago TRACON